Auburn, NE

8:10 AM CDT on May 27, 2015 (GMT -0500)
Plattsmouth Municipal | | Change Station
CLOSE
Current Station
Airport
Location: Plattsmouth,
Elevation: 1201 ft
Nearby Weather Stations

Elev 1201 ft 40.95 °N, 95.92 °W | Updated 15 minutes ago

Clear
Clear
62 °F
Feels Like 62 °F
N
6
Wind Variable Wind from West

Today
High -- | Low -- °F
--% Chance of Precip.
Yesterday
High -- | Low -- °F
Precip. -- in
5:58 AM 8:43 PM
Waxing Gibbous, 67% visible
Pressure 30.04 in
Visibility 10.0 miles
Clouds Clear
Dew Point 52 °F
Humidity 70%
Rainfall 0.00 in
Snow Depth Not available.
UV 2 out of 12
Pollen 7.10 out of 12
Air Quality Not available.
Flu Activity No Activity
METAR KPMV 271255Z AUTO 28005KT 10SM CLR 17/11 A3004 RMK AO2 T01680112

More Conditions Fewer Conditions

Pressure 30.04 in
Visibility 10.0 miles
Clouds Clear
Dew Point 52 °F
Humidity 70%
Rainfall 0.00 in
Snow Depth Not available.
UV 2 out of 12
Pollen 7.10 out of 12
Air Quality Not available.
Flu Activity No Activity
METAR KPMV 271255Z AUTO 28005KT 10SM CLR 17/11 A3004 RMK AO2 T01680112

More Conditions Fewer Conditions

10-Day Weather Forecast

Almanac

Astronomy

May. 27, 2015 Rise Set
Actual Time
Civil Twilight
Nautical Twilight
Astronomical Twilight
Moon
Length of Visible Light
Length of Day
Tomorrow will be .
, % of the Moon is Illuminated

Today's Extremes

State Highs State Lows

Community

WunderPhotos

Upload Photos

1,824,664 photos uploaded!

WunderBlogs® & News

Nearby

Air Quality

  Air Quality AQ Index Pollutant
Not available.

Snow Depth

Station Depth Elevation

Earthquake Activity

City Distance Mag. Time & Date
Minimum magnitude displayed is 2.5.

Coastal Water Temperatures

Place Temperature

Stations

Nearby Weather Stations

Station Location Temp. Windchill Dew Point Humidity Wind Precip. Elev Updated Type